DLH407 EVRA-EPGD
Flight info
| Callsign | DLH407 |
|---|---|
| Flight time | 0h 56m |
| Altitude | 34000 |
| Route | TENSI L73 EVONA DCT TESPO/N0448F330 DCT PENOR DCT MOTAD N133 DOMAG T240 OGDAV |
| Aircraft | B38M/M-SDE1FGHILORVWXY/HB1 |
Departure
| Time | 2026-04-29 16:14 |
|---|---|
| Airport | Riga International Airport (EVRA) |
Arrival
| Time | 2026-04-29 17:11 |
|---|---|
| Airport | Gdańsk Lech Wałęsa Airport (EPGD) |
| Time | Latitude | Longitude | Altitude | Speed | Heading |
|---|---|---|---|---|---|
| 2026-04-29 16:02 | 56.92551 | 23.97663 | 46 ft | 0 kts | 185° |
| 2026-04-29 16:07 | 56.92557 | 23.97664 | 46 ft | 2 kts | 185° |
| 2026-04-29 16:07 | 56.92574 | 23.97667 | 46 ft | 3 kts | 191° |
| 2026-04-29 16:07 | 56.92592 | 23.97682 | 46 ft | 3 kts | 217° |
| 2026-04-29 16:08 | 56.92605 | 23.97710 | 46 ft | 3 kts | 243° |
| 2026-04-29 16:08 | 56.92611 | 23.97746 | 46 ft | 3 kts | 266° |
| 2026-04-29 16:08 | 56.92610 | 23.97765 | 46 ft | 0 kts | 275° |
| 2026-04-29 16:10 | 56.92611 | 23.97749 | 46 ft | 3 kts | 274° |
| 2026-04-29 16:10 | 56.92614 | 23.97684 | 46 ft | 6 kts | 274° |
| 2026-04-29 16:10 | 56.92612 | 23.97609 | 46 ft | 7 kts | 246° |
| 2026-04-29 16:10 | 56.92564 | 23.97548 | 46 ft | 10 kts | 189° |
| 2026-04-29 16:11 | 56.92488 | 23.97532 | 46 ft | 11 kts | 186° |
| 2026-04-29 16:11 | 56.92398 | 23.97514 | 46 ft | 15 kts | 186° |
| 2026-04-29 16:11 | 56.92286 | 23.97492 | 46 ft | 17 kts | 186° |
| 2026-04-29 16:11 | 56.92158 | 23.97469 | 46 ft | 20 kts | 185° |
| 2026-04-29 16:12 | 56.92004 | 23.97444 | 46 ft | 24 kts | 184° |
| 2026-04-29 16:12 | 56.91841 | 23.97428 | 46 ft | 25 kts | 186° |
| 2026-04-29 16:12 | 56.91658 | 23.97396 | 46 ft | 26 kts | 185° |
| 2026-04-29 16:12 | 56.91517 | 23.97373 | 46 ft | 19 kts | 185° |
| 2026-04-29 16:13 | 56.91391 | 23.97352 | 46 ft | 17 kts | 193° |
| 2026-04-29 16:13 | 56.91300 | 23.97226 | 46 ft | 16 kts | 231° |
| 2026-04-29 16:13 | 56.91256 | 23.97078 | 46 ft | 13 kts | 269° |
| 2026-04-29 16:13 | 56.91288 | 23.96959 | 46 ft | 6 kts | 332° |
| 2026-04-29 16:14 | 56.91341 | 23.96952 | 46 ft | 10 kts | 5° |
| 2026-04-29 16:14 | 56.91565 | 23.96987 | 46 ft | 72 kts | 5° |
| 2026-04-29 16:14 | 56.92363 | 23.97119 | 47 ft | 156 kts | 5° |
| 2026-04-29 16:14 | 56.93577 | 23.97297 | 736 ft | 180 kts | 3° |
| 2026-04-29 16:15 | 56.94842 | 23.97354 | 1962 ft | 187 kts | 1° |
| 2026-04-29 16:15 | 56.96194 | 23.97434 | 2887 ft | 209 kts | 2° |
| 2026-04-29 16:15 | 56.97729 | 23.97432 | 2966 ft | 229 kts | 357° |
| 2026-04-29 16:15 | 56.99283 | 23.96664 | 2957 ft | 237 kts | 333° |
| 2026-04-29 16:16 | 57.00356 | 23.94411 | 3151 ft | 238 kts | 297° |
| 2026-04-29 16:16 | 57.00531 | 23.91423 | 3713 ft | 240 kts | 262° |
| 2026-04-29 16:16 | 56.99801 | 23.88859 | 4300 ft | 243 kts | 229° |
| 2026-04-29 16:16 | 56.98828 | 23.87656 | 4774 ft | 241 kts | 209° |
| 2026-04-29 16:17 | 56.97320 | 23.86159 | 5530 ft | 245 kts | 209° |
| 2026-04-29 16:17 | 56.95842 | 23.84648 | 6147 ft | 247 kts | 209° |
| 2026-04-29 16:17 | 56.94418 | 23.82854 | 6703 ft | 251 kts | 223° |
| 2026-04-29 16:17 | 56.93302 | 23.80406 | 7376 ft | 252 kts | 233° |
| 2026-04-29 16:18 | 56.92581 | 23.77481 | 7934 ft | 254 kts | 255° |
| 2026-04-29 16:18 | 56.92486 | 23.74247 | 8668 ft | 256 kts | 273° |
| 2026-04-29 16:18 | 56.92748 | 23.71010 | 9467 ft | 259 kts | 280° |
| 2026-04-29 16:18 | 56.93113 | 23.67754 | 10207 ft | 263 kts | 285° |
| 2026-04-29 16:19 | 56.93954 | 23.64781 | 10910 ft | 264 kts | 303° |
| 2026-04-29 16:19 | 56.95090 | 23.62082 | 11678 ft | 274 kts | 309° |
| 2026-04-29 16:19 | 56.96345 | 23.59321 | 12298 ft | 290 kts | 310° |
| 2026-04-29 16:19 | 56.97692 | 23.56444 | 12894 ft | 306 kts | 311° |
| 2026-04-29 16:20 | 56.99125 | 23.53422 | 13459 ft | 322 kts | 311° |
| 2026-04-29 16:20 | 57.00638 | 23.50259 | 13987 ft | 338 kts | 311° |
| 2026-04-29 16:20 | 57.02224 | 23.46957 | 14575 ft | 349 kts | 311° |
| 2026-04-29 16:20 | 57.03714 | 23.43396 | 15301 ft | 355 kts | 300° |
| 2026-04-29 16:21 | 57.04554 | 23.39193 | 16083 ft | 358 kts | 283° |
| 2026-04-29 16:21 | 57.04963 | 23.34664 | 16840 ft | 362 kts | 278° |
| 2026-04-29 16:21 | 57.05297 | 23.30042 | 17557 ft | 366 kts | 277° |
| 2026-04-29 16:21 | 57.05607 | 23.25373 | 18255 ft | 370 kts | 277° |
| 2026-04-29 16:22 | 57.05903 | 23.20655 | 18930 ft | 374 kts | 276° |
| 2026-04-29 16:22 | 57.06192 | 23.15881 | 19590 ft | 378 kts | 276° |
| 2026-04-29 16:22 | 57.06479 | 23.11054 | 20231 ft | 381 kts | 276° |
| 2026-04-29 16:22 | 57.06764 | 23.06178 | 20853 ft | 385 kts | 276° |
| 2026-04-29 16:23 | 57.07050 | 23.01264 | 21457 ft | 389 kts | 276° |
| 2026-04-29 16:23 | 57.07336 | 22.96296 | 22046 ft | 392 kts | 276° |
| 2026-04-29 16:23 | 57.07619 | 22.91354 | 22616 ft | 395 kts | 276° |
| 2026-04-29 16:23 | 57.07906 | 22.86300 | 23176 ft | 399 kts | 276° |
| 2026-04-29 16:24 | 57.08193 | 22.81203 | 23718 ft | 402 kts | 276° |
| 2026-04-29 16:24 | 57.08480 | 22.76066 | 24245 ft | 406 kts | 276° |
| 2026-04-29 16:24 | 57.08768 | 22.70880 | 24758 ft | 409 kts | 276° |
| 2026-04-29 16:24 | 57.09057 | 22.65665 | 25251 ft | 412 kts | 276° |
| 2026-04-29 16:25 | 57.09281 | 22.60394 | 25707 ft | 416 kts | 269° |
| 2026-04-29 16:25 | 57.08917 | 22.55107 | 26213 ft | 417 kts | 260° |
| 2026-04-29 16:25 | 57.08385 | 22.49829 | 26652 ft | 421 kts | 259° |
| 2026-04-29 16:25 | 57.07826 | 22.44518 | 27098 ft | 424 kts | 259° |
| 2026-04-29 16:26 | 57.07251 | 22.39195 | 27533 ft | 427 kts | 258° |
| 2026-04-29 16:26 | 57.06623 | 22.33906 | 27929 ft | 430 kts | 253° |
| 2026-04-29 16:26 | 57.05353 | 22.28922 | 28338 ft | 432 kts | 238° |
| 2026-04-29 16:26 | 57.03643 | 22.24360 | 28759 ft | 434 kts | 234° |
| 2026-04-29 16:27 | 57.01853 | 22.19853 | 29145 ft | 437 kts | 233° |
| 2026-04-29 16:27 | 57.00030 | 22.15353 | 29534 ft | 440 kts | 233° |
| 2026-04-29 16:27 | 56.98185 | 22.10855 | 29913 ft | 443 kts | 233° |
| 2026-04-29 16:27 | 56.96342 | 22.06393 | 30280 ft | 445 kts | 233° |
| 2026-04-29 16:28 | 56.94461 | 22.01855 | 30645 ft | 448 kts | 233° |
| 2026-04-29 16:28 | 56.92570 | 21.97304 | 31001 ft | 450 kts | 233° |
| 2026-04-29 16:28 | 56.90661 | 21.92718 | 31353 ft | 453 kts | 232° |
| 2026-04-29 16:28 | 56.88746 | 21.88128 | 31702 ft | 455 kts | 232° |
| 2026-04-29 16:29 | 56.86814 | 21.83505 | 32042 ft | 457 kts | 232° |
| 2026-04-29 16:29 | 56.84878 | 21.78881 | 32373 ft | 460 kts | 232° |
| 2026-04-29 16:29 | 56.82950 | 21.74285 | 32696 ft | 462 kts | 232° |
| 2026-04-29 16:29 | 56.80990 | 21.69622 | 33080 ft | 463 kts | 232° |
| 2026-04-29 16:30 | 56.79032 | 21.64973 | 33539 ft | 461 kts | 232° |
| 2026-04-29 16:30 | 56.77074 | 21.60331 | 33948 ft | 462 kts | 232° |
| 2026-04-29 16:30 | 56.75110 | 21.55686 | 34000 ft | 461 kts | 232° |
| 2026-04-29 16:31 | 56.71192 | 21.46445 | 34001 ft | 460 kts | 232° |
| 2026-04-29 16:31 | 56.67290 | 21.37278 | 34001 ft | 460 kts | 232° |
| 2026-04-29 16:32 | 56.63361 | 21.28080 | 34001 ft | 460 kts | 232° |
| 2026-04-29 16:32 | 56.59421 | 21.18895 | 34001 ft | 460 kts | 232° |
| 2026-04-29 16:33 | 56.53509 | 21.05174 | 34001 ft | 460 kts | 232° |
| 2026-04-29 16:33 | 56.49556 | 20.96044 | 34001 ft | 460 kts | 232° |
| 2026-04-29 16:34 | 56.45596 | 20.86930 | 34000 ft | 460 kts | 232° |
| 2026-04-29 16:34 | 56.41657 | 20.77902 | 34000 ft | 460 kts | 232° |
| 2026-04-29 16:35 | 56.37686 | 20.68831 | 34001 ft | 460 kts | 231° |
| 2026-04-29 16:35 | 56.33706 | 20.59776 | 34001 ft | 460 kts | 231° |
| 2026-04-29 16:36 | 56.29720 | 20.50739 | 34001 ft | 460 kts | 231° |
| 2026-04-29 16:36 | 56.25730 | 20.41729 | 34001 ft | 460 kts | 231° |
| 2026-04-29 16:37 | 56.21729 | 20.32726 | 34000 ft | 460 kts | 231° |
| 2026-04-29 16:37 | 56.18392 | 20.25245 | 34000 ft | 460 kts | 231° |
| 2026-04-29 16:38 | 56.13729 | 20.14826 | 34000 ft | 460 kts | 231° |
| 2026-04-29 16:38 | 56.09725 | 20.05916 | 34000 ft | 460 kts | 231° |
| 2026-04-29 16:39 | 56.05699 | 19.96992 | 34000 ft | 460 kts | 231° |
| 2026-04-29 16:39 | 56.01664 | 19.88077 | 34000 ft | 460 kts | 231° |
| 2026-04-29 16:40 | 55.97626 | 19.79192 | 34000 ft | 460 kts | 231° |
| 2026-04-29 16:40 | 55.93582 | 19.70324 | 34000 ft | 460 kts | 231° |
| 2026-04-29 16:41 | 55.89560 | 19.61539 | 34001 ft | 460 kts | 231° |
| 2026-04-29 16:41 | 55.85505 | 19.52712 | 34001 ft | 460 kts | 231° |
| 2026-04-29 16:42 | 55.81445 | 19.43905 | 34001 ft | 460 kts | 231° |
| 2026-04-29 16:42 | 55.77367 | 19.35094 | 34000 ft | 460 kts | 230° |
| 2026-04-29 16:43 | 55.73295 | 19.26325 | 34000 ft | 460 kts | 230° |
| 2026-04-29 16:43 | 55.69237 | 19.17619 | 34001 ft | 460 kts | 230° |
| 2026-04-29 16:44 | 55.65113 | 19.08805 | 34000 ft | 460 kts | 230° |
| 2026-04-29 16:44 | 55.61022 | 19.00091 | 34000 ft | 460 kts | 230° |
| 2026-04-29 16:45 | 55.56918 | 18.91380 | 33921 ft | 461 kts | 230° |
| 2026-04-29 16:45 | 55.54869 | 18.87045 | 33232 ft | 458 kts | 230° |
| 2026-04-29 16:45 | 55.52814 | 18.82703 | 32258 ft | 463 kts | 230° |
| 2026-04-29 16:46 | 55.50731 | 18.78309 | 31289 ft | 468 kts | 230° |
| 2026-04-29 16:46 | 55.48661 | 18.73953 | 30484 ft | 469 kts | 230° |
| 2026-04-29 16:46 | 55.46572 | 18.69562 | 29824 ft | 465 kts | 230° |
| 2026-04-29 16:46 | 55.44499 | 18.65214 | 29185 ft | 461 kts | 230° |
| 2026-04-29 16:47 | 55.42438 | 18.60899 | 28523 ft | 458 kts | 230° |
| 2026-04-29 16:47 | 55.40393 | 18.56624 | 27864 ft | 455 kts | 230° |
| 2026-04-29 16:47 | 55.38362 | 18.52386 | 27212 ft | 451 kts | 230° |
| 2026-04-29 16:47 | 55.36344 | 18.48183 | 26569 ft | 447 kts | 230° |
| 2026-04-29 16:48 | 55.34346 | 18.44028 | 25936 ft | 444 kts | 230° |
| 2026-04-29 16:48 | 55.33026 | 18.41288 | 25517 ft | 441 kts | 230° |
| 2026-04-29 16:48 | 55.31050 | 18.37192 | 24889 ft | 437 kts | 230° |
| 2026-04-29 16:48 | 55.29095 | 18.33144 | 24266 ft | 433 kts | 230° |
| 2026-04-29 16:49 | 55.27151 | 18.29127 | 23643 ft | 429 kts | 230° |
| 2026-04-29 16:49 | 55.25226 | 18.25157 | 23024 ft | 425 kts | 230° |
| 2026-04-29 16:49 | 55.23315 | 18.21220 | 22408 ft | 421 kts | 230° |
| 2026-04-29 16:49 | 55.21422 | 18.17324 | 21795 ft | 418 kts | 230° |
| 2026-04-29 16:50 | 55.19546 | 18.13469 | 21185 ft | 414 kts | 230° |
| 2026-04-29 16:50 | 55.17709 | 18.09700 | 20587 ft | 410 kts | 229° |
| 2026-04-29 16:50 | 55.15861 | 18.05914 | 19982 ft | 406 kts | 229° |
| 2026-04-29 16:50 | 55.14026 | 18.02160 | 19380 ft | 403 kts | 229° |
| 2026-04-29 16:51 | 55.12211 | 17.98453 | 18782 ft | 399 kts | 229° |
| 2026-04-29 16:51 | 55.10413 | 17.94787 | 18190 ft | 395 kts | 229° |
| 2026-04-29 16:51 | 55.08633 | 17.91160 | 17605 ft | 392 kts | 229° |
| 2026-04-29 16:51 | 55.06891 | 17.87618 | 17033 ft | 388 kts | 229° |
| 2026-04-29 16:52 | 55.05137 | 17.84056 | 16457 ft | 384 kts | 229° |
| 2026-04-29 16:52 | 55.03389 | 17.80543 | 15869 ft | 381 kts | 227° |
| 2026-04-29 16:52 | 55.01283 | 17.77784 | 15207 ft | 379 kts | 208° |
| 2026-04-29 16:52 | 54.98796 | 17.76375 | 14671 ft | 374 kts | 189° |
| 2026-04-29 16:53 | 54.96216 | 17.76353 | 14134 ft | 370 kts | 172° |
| 2026-04-29 16:53 | 54.93774 | 17.77641 | 13579 ft | 366 kts | 156° |
| 2026-04-29 16:53 | 54.91652 | 17.80022 | 13017 ft | 362 kts | 141° |
| 2026-04-29 16:53 | 54.89790 | 17.82945 | 12489 ft | 358 kts | 136° |
| 2026-04-29 16:54 | 54.88044 | 17.85890 | 12121 ft | 350 kts | 135° |
| 2026-04-29 16:54 | 54.86349 | 17.88843 | 11816 ft | 340 kts | 134° |
| 2026-04-29 16:54 | 54.84711 | 17.91739 | 11537 ft | 330 kts | 134° |
| 2026-04-29 16:54 | 54.83132 | 17.94555 | 11269 ft | 321 kts | 134° |
| 2026-04-29 16:55 | 54.81590 | 17.97279 | 10990 ft | 312 kts | 136° |
| 2026-04-29 16:55 | 54.79752 | 17.99179 | 10552 ft | 307 kts | 159° |
| 2026-04-29 16:55 | 54.77689 | 17.99791 | 10346 ft | 296 kts | 179° |
| 2026-04-29 16:55 | 54.75724 | 17.99186 | 10230 ft | 281 kts | 199° |
| 2026-04-29 16:56 | 54.74089 | 17.97519 | 10120 ft | 267 kts | 219° |
| 2026-04-29 16:56 | 54.72946 | 17.95040 | 10021 ft | 262 kts | 240° |
| 2026-04-29 16:56 | 54.72424 | 17.92025 | 9968 ft | 267 kts | 263° |
| 2026-04-29 16:56 | 54.72695 | 17.88835 | 10003 ft | 273 kts | 289° |
| 2026-04-29 16:57 | 54.73701 | 17.86091 | 10017 ft | 274 kts | 308° |
| 2026-04-29 16:57 | 54.74967 | 17.83618 | 10005 ft | 274 kts | 312° |
| 2026-04-29 16:57 | 54.76260 | 17.81196 | 10001 ft | 274 kts | 313° |
| 2026-04-29 16:57 | 54.77563 | 17.78785 | 10000 ft | 274 kts | 313° |
| 2026-04-29 16:58 | 54.78982 | 17.76590 | 9987 ft | 274 kts | 326° |
| 2026-04-29 16:58 | 54.80758 | 17.75420 | 10002 ft | 275 kts | 348° |
| 2026-04-29 16:58 | 54.82666 | 17.75468 | 10000 ft | 275 kts | 10° |
| 2026-04-29 16:58 | 54.84422 | 17.76730 | 10000 ft | 275 kts | 31° |
| 2026-04-29 16:59 | 54.85773 | 17.78991 | 10000 ft | 275 kts | 53° |
| 2026-04-29 16:59 | 54.86564 | 17.81999 | 10000 ft | 275 kts | 74° |
| 2026-04-29 16:59 | 54.86656 | 17.85290 | 10000 ft | 275 kts | 96° |
| 2026-04-29 16:59 | 54.86032 | 17.88406 | 9998 ft | 275 kts | 118° |
| 2026-04-29 17:00 | 54.84871 | 17.91045 | 9759 ft | 276 kts | 130° |
| 2026-04-29 17:00 | 54.83567 | 17.93556 | 9068 ft | 284 kts | 132° |
| 2026-04-29 17:00 | 54.82205 | 17.96097 | 8326 ft | 290 kts | 133° |
| 2026-04-29 17:00 | 54.80814 | 17.98662 | 7649 ft | 292 kts | 133° |
| 2026-04-29 17:01 | 54.79356 | 18.00946 | 7336 ft | 281 kts | 146° |
| 2026-04-29 17:01 | 54.77601 | 18.02125 | 7197 ft | 263 kts | 168° |
| 2026-04-29 17:01 | 54.75835 | 18.02137 | 7109 ft | 248 kts | 186° |
| 2026-04-29 17:01 | 54.74138 | 18.01732 | 7089 ft | 248 kts | 187° |
| 2026-04-29 17:02 | 54.72382 | 18.01441 | 7042 ft | 257 kts | 184° |
| 2026-04-29 17:02 | 54.70577 | 18.01296 | 6980 ft | 262 kts | 181° |
| 2026-04-29 17:02 | 54.68754 | 18.01273 | 6909 ft | 262 kts | 180° |
| 2026-04-29 17:02 | 54.66934 | 18.01334 | 6837 ft | 261 kts | 178° |
| 2026-04-29 17:03 | 54.65114 | 18.01447 | 6765 ft | 261 kts | 178° |
| 2026-04-29 17:03 | 54.63297 | 18.01589 | 6693 ft | 261 kts | 177° |
| 2026-04-29 17:03 | 54.61483 | 18.01747 | 6622 ft | 261 kts | 177° |
| 2026-04-29 17:03 | 54.59680 | 18.01914 | 6543 ft | 254 kts | 177° |
| 2026-04-29 17:04 | 54.57957 | 18.02080 | 6465 ft | 250 kts | 176° |
| 2026-04-29 17:04 | 54.56199 | 18.02253 | 6407 ft | 257 kts | 176° |
| 2026-04-29 17:04 | 54.54390 | 18.02433 | 6311 ft | 264 kts | 176° |
| 2026-04-29 17:04 | 54.52551 | 18.02617 | 6088 ft | 264 kts | 176° |
| 2026-04-29 17:05 | 54.50722 | 18.02808 | 5790 ft | 263 kts | 175° |
| 2026-04-29 17:05 | 54.49004 | 18.03799 | 5358 ft | 262 kts | 149° |
| 2026-04-29 17:05 | 54.47761 | 18.06026 | 5076 ft | 260 kts | 123° |
| 2026-04-29 17:05 | 54.46987 | 18.08822 | 4895 ft | 259 kts | 113° |
| 2026-04-29 17:06 | 54.46295 | 18.11679 | 4596 ft | 258 kts | 112° |
| 2026-04-29 17:06 | 54.45609 | 18.14524 | 4271 ft | 255 kts | 112° |
| 2026-04-29 17:06 | 54.44948 | 18.17253 | 4097 ft | 242 kts | 112° |
| 2026-04-29 17:06 | 54.44327 | 18.19814 | 3761 ft | 222 kts | 112° |
| 2026-04-29 17:07 | 54.43754 | 18.22173 | 3446 ft | 205 kts | 112° |
| 2026-04-29 17:07 | 54.43233 | 18.24313 | 3224 ft | 183 kts | 112° |
| 2026-04-29 17:07 | 54.42771 | 18.26210 | 3007 ft | 162 kts | 112° |
| 2026-04-29 17:07 | 54.42360 | 18.27895 | 2792 ft | 147 kts | 112° |
| 2026-04-29 17:08 | 54.41969 | 18.29497 | 2603 ft | 143 kts | 112° |
| 2026-04-29 17:08 | 54.41581 | 18.31081 | 2564 ft | 145 kts | 112° |
| 2026-04-29 17:08 | 54.41188 | 18.32684 | 2386 ft | 145 kts | 112° |
| 2026-04-29 17:08 | 54.40797 | 18.34275 | 2133 ft | 144 kts | 112° |
| 2026-04-29 17:09 | 54.40415 | 18.35833 | 1900 ft | 143 kts | 112° |
| 2026-04-29 17:09 | 54.40020 | 18.37409 | 1619 ft | 143 kts | 113° |
| 2026-04-29 17:09 | 54.39635 | 18.38973 | 1299 ft | 141 kts | 112° |
| 2026-04-29 17:09 | 54.39256 | 18.40518 | 1095 ft | 141 kts | 112° |
| 2026-04-29 17:10 | 54.38875 | 18.42076 | 926 ft | 142 kts | 112° |
| 2026-04-29 17:10 | 54.38492 | 18.43636 | 727 ft | 141 kts | 112° |
| 2026-04-29 17:10 | 54.38117 | 18.45162 | 547 ft | 140 kts | 113° |
| 2026-04-29 17:10 | 54.37771 | 18.46560 | 501 ft | 99 kts | 113° |
| 2026-04-29 17:11 | 54.37570 | 18.47455 | 501 ft | 55 kts | 89° |
| 2026-04-29 17:11 | 54.37629 | 18.47858 | 501 ft | 11 kts | 44° |
| 2026-04-29 17:11 | 54.37690 | 18.47912 | 501 ft | 10 kts | 24° |